Terminal Aerodrome Forecast
Issued by NWS

Home | Current Version | Previous Version | Text Only | Print | Product List | Glossary On
Versions: 1 2 3 4 5 6 7 8 9 10 11 12 13 14 15 16 17 18 19 20
000
FTUS43 KMQT 041735
TAFSAW
TAF
KSAW 041735Z 0418/0518 30012G19KT 6SM -SHSN BKN030
      TEMPO 0418/0422 3SM -SHSN BKN022
     FM050000 30008KT P6SM SCT030
     FM050400 30004KT P6SM VCSH SCT030
     FM050800 28004KT P6SM SCT035
     FM051500 27007KT P6SM FEW030
      AMD LTD TO CLD VIS AND WIND 0503/0511=

USA.gov is the U.S. government's official web portal to all federal, state and local government web resources and services.